createdAt,value
2023-05-19T00:00:27.728Z,1018.58
2023-05-19T00:01:25.941Z,1018.58
2023-05-19T00:02:25.951Z,1018.61
2023-05-19T00:03:25.855Z,1018.56
2023-05-19T00:04:25.718Z,1018.59
2023-05-19T00:05:25.728Z,1018.60
2023-05-19T00:06:25.798Z,1018.57
2023-05-19T00:07:25.822Z,1018.52
2023-05-19T00:08:25.730Z,1018.56
2023-05-19T00:09:25.750Z,1018.58
2023-05-19T00:10:25.700Z,1018.64
2023-05-19T00:11:25.629Z,1018.62
2023-05-19T00:12:25.631Z,1018.60
2023-05-19T00:13:25.669Z,1018.60
2023-05-19T00:14:27.093Z,1018.59
2023-05-19T00:15:25.621Z,1018.58
2023-05-19T00:16:25.741Z,1018.59
2023-05-19T00:17:25.570Z,1018.59
2023-05-19T00:18:25.610Z,1018.62
2023-05-19T00:19:25.665Z,1018.61
2023-05-19T00:20:25.668Z,1018.58
2023-05-19T00:21:26.994Z,1018.62
2023-05-19T00:22:25.592Z,1018.57
2023-05-19T00:23:25.550Z,1018.56
2023-05-19T00:24:25.505Z,1018.59
2023-05-19T00:25:25.491Z,1018.61
2023-05-19T00:26:25.442Z,1018.56
2023-05-19T00:27:27.453Z,1018.56
2023-05-19T00:28:25.529Z,1018.54
2023-05-19T00:29:25.548Z,1018.54
2023-05-19T00:30:25.448Z,1018.57
2023-05-19T00:31:25.428Z,1018.60
2023-05-19T00:32:25.490Z,1018.58
2023-05-19T00:33:25.437Z,1018.56
2023-05-19T00:34:25.585Z,1018.58
2023-05-19T00:35:25.374Z,1018.59
2023-05-19T00:36:25.384Z,1018.53
2023-05-19T00:37:25.345Z,1018.54
2023-05-19T00:38:25.375Z,1018.56
2023-05-19T00:39:25.386Z,1018.60
2023-05-19T00:40:25.318Z,1018.59
2023-05-19T00:41:25.279Z,1018.57
2023-05-19T00:42:25.307Z,1018.60
2023-05-19T00:43:25.342Z,1018.60
2023-05-19T00:44:25.302Z,1018.60
2023-05-19T00:45:25.251Z,1018.60
2023-05-19T00:46:25.382Z,1018.62
2023-05-19T00:47:26.810Z,1018.61
2023-05-19T00:48:25.300Z,1018.63
2023-05-19T00:49:25.255Z,1018.58
2023-05-19T00:50:25.216Z,1018.59
2023-05-19T00:51:25.251Z,1018.59
2023-05-19T00:52:25.158Z,1018.61
2023-05-19T00:53:25.313Z,1018.58
2023-05-19T00:54:25.181Z,1018.60
2023-05-19T00:55:25.236Z,1018.59
2023-05-19T00:56:25.116Z,1018.63
2023-05-19T00:57:25.251Z,1018.62
2023-05-19T00:58:25.266Z,1018.59
2023-05-19T00:59:25.084Z,1018.59
2023-05-19T01:00:26.172Z,1018.54
2023-05-19T01:01:25.186Z,1018.57
2023-05-19T01:02:25.258Z,1018.55
2023-05-19T01:03:25.292Z,1018.54
2023-05-19T01:04:25.085Z,1018.58
2023-05-19T01:05:25.069Z,1018.57
2023-05-19T01:06:25.020Z,1018.56
2023-05-19T01:07:26.988Z,1018.58
2023-05-19T01:08:25.121Z,1018.58
2023-05-19T01:09:25.004Z,1018.51
2023-05-19T01:10:24.975Z,1018.60
2023-05-19T01:11:24.965Z,1018.58
2023-05-19T01:12:26.966Z,1018.56
2023-05-19T01:13:24.997Z,1018.56
2023-05-19T01:14:25.010Z,1018.57
2023-05-19T01:15:25.035Z,1018.61
2023-05-19T01:16:25.060Z,1018.58
2023-05-19T01:17:25.021Z,1018.57
2023-05-19T01:18:24.876Z,1018.56
2023-05-19T01:19:25.950Z,1018.60
2023-05-19T01:20:24.923Z,1018.60
2023-05-19T01:21:24.884Z,1018.59
2023-05-19T01:22:24.884Z,1018.57
2023-05-19T01:23:24.831Z,1018.54
2023-05-19T01:24:24.831Z,1018.55
2023-05-19T01:25:24.902Z,1018.52
2023-05-19T01:26:26.848Z,1018.56
2023-05-19T01:27:24.897Z,1018.53
2023-05-19T01:28:24.864Z,1018.53
2023-05-19T01:29:24.723Z,1018.54
2023-05-19T01:30:24.800Z,1018.48
2023-05-19T01:31:24.868Z,1018.49
2023-05-19T01:32:24.718Z,1018.48
2023-05-19T01:33:26.682Z,1018.47
2023-05-19T01:34:24.741Z,1018.47
2023-05-19T01:35:24.839Z,1018.48
2023-05-19T01:36:24.690Z,1018.48
2023-05-19T01:37:24.681Z,1018.46
2023-05-19T01:38:24.749Z,1018.49
2023-05-19T01:39:26.241Z,1018.51
2023-05-19T01:40:24.687Z,1018.46
2023-05-19T01:41:24.667Z,1018.45
2023-05-19T01:42:24.631Z,1018.44
2023-05-19T01:43:24.622Z,1018.45
2023-05-19T01:44:24.647Z,1018.48
2023-05-19T01:45:24.741Z,1018.47
2023-05-19T01:46:26.240Z,1018.44
2023-05-19T01:47:24.727Z,1018.53
2023-05-19T01:48:24.579Z,1018.51
2023-05-19T01:49:24.614Z,1018.48
2023-05-19T01:50:24.579Z,1018.52
2023-05-19T01:51:24.593Z,1018.50
2023-05-19T01:52:24.578Z,1018.53
2023-05-19T01:53:24.660Z,1018.52
2023-05-19T01:54:24.580Z,1018.53
2023-05-19T01:55:24.548Z,1018.53
2023-05-19T01:56:24.508Z,1018.55
2023-05-19T01:57:24.447Z,1018.52
2023-05-19T01:58:24.434Z,1018.52
2023-05-19T01:59:26.387Z,1018.54
2023-05-19T02:00:24.445Z,1018.51
2023-05-19T02:01:24.488Z,1018.50
2023-05-19T02:02:24.479Z,1018.50
2023-05-19T02:03:24.402Z,1018.52
2023-05-19T02:04:24.425Z,1018.54
2023-05-19T02:05:24.368Z,1018.51
2023-05-19T02:06:25.787Z,1018.51
2023-05-19T02:07:24.484Z,1018.54
2023-05-19T02:08:24.397Z,1018.54
2023-05-19T02:09:24.450Z,1018.54
2023-05-19T02:10:24.318Z,1018.54
2023-05-19T02:11:24.315Z,1018.56
2023-05-19T02:12:24.373Z,1018.62
2023-05-19T02:13:25.853Z,1018.59
2023-05-19T02:14:24.263Z,1018.57
2023-05-19T02:15:24.261Z,1018.58
2023-05-19T02:16:24.347Z,1018.58
2023-05-19T02:17:24.292Z,1018.55
2023-05-19T02:18:24.178Z,1018.54
2023-05-19T02:19:24.645Z,1018.55
2023-05-19T02:20:24.235Z,1018.55
2023-05-19T02:21:24.278Z,1018.54
2023-05-19T02:22:24.273Z,1018.52
2023-05-19T02:23:24.184Z,1018.52
2023-05-19T02:24:24.189Z,1018.55
2023-05-19T02:25:24.207Z,1018.49
2023-05-19T02:26:25.802Z,1018.54
2023-05-19T02:27:24.172Z,1018.56
2023-05-19T02:28:24.137Z,1018.57
2023-05-19T02:29:24.179Z,1018.55
2023-05-19T02:30:24.122Z,1018.59
2023-05-19T02:31:24.171Z,1018.56
2023-05-19T02:32:24.136Z,1018.59
2023-05-19T02:33:25.582Z,1018.59
2023-05-19T02:34:24.131Z,1018.61
2023-05-19T02:35:24.149Z,1018.62
2023-05-19T02:36:24.159Z,1018.60
2023-05-19T02:37:24.044Z,1018.59
2023-05-19T02:38:24.070Z,1018.60
2023-05-19T02:39:24.029Z,1018.59
2023-05-19T02:40:26.066Z,1018.60
2023-05-19T02:41:24.081Z,1018.58
2023-05-19T02:42:23.989Z,1018.60
2023-05-19T02:43:23.974Z,1018.63
2023-05-19T02:44:23.977Z,1018.59
2023-05-19T02:45:24.011Z,1018.56
2023-05-19T02:46:24.013Z,1018.57
2023-05-19T02:47:26.131Z,1018.55
2023-05-19T02:48:23.965Z,1018.55
2023-05-19T02:49:24.066Z,1018.57
2023-05-19T02:50:23.964Z,1018.56
2023-05-19T02:51:23.927Z,1018.55
2023-05-19T02:52:23.879Z,1018.54
2023-05-19T02:53:23.858Z,1018.50
2023-05-19T02:54:25.471Z,1018.53
2023-05-19T02:55:23.900Z,1018.49
2023-05-19T02:56:23.870Z,1018.49
2023-05-19T02:57:23.924Z,1018.52
2023-05-19T02:58:23.829Z,1018.49
2023-05-19T02:59:25.620Z,1018.51
2023-05-19T03:00:23.880Z,1018.54
2023-05-19T03:01:23.796Z,1018.50
2023-05-19T03:02:23.769Z,1018.51
2023-05-19T03:03:23.845Z,1018.46
2023-05-19T03:04:23.766Z,1018.44
2023-05-19T03:05:23.717Z,1018.43
2023-05-19T03:06:23.747Z,1018.45
2023-05-19T03:07:25.684Z,1018.44
2023-05-19T03:08:23.707Z,1018.39
2023-05-19T03:09:23.755Z,1018.40
2023-05-19T03:10:23.696Z,1018.36
2023-05-19T03:11:23.662Z,1018.39
2023-05-19T03:12:23.667Z,1018.39
2023-05-19T03:13:23.743Z,1018.42
2023-05-19T03:14:24.164Z,1018.42
2023-05-19T03:15:23.655Z,1018.38
2023-05-19T03:16:23.657Z,1018.38
2023-05-19T03:17:23.773Z,1018.38
2023-05-19T03:18:23.718Z,1018.34
2023-05-19T03:19:23.697Z,1018.35
2023-05-19T03:20:23.734Z,1018.39
2023-05-19T03:21:23.563Z,1018.33
2023-05-19T03:22:23.686Z,1018.30
2023-05-19T03:23:23.588Z,1018.36
2023-05-19T03:24:23.491Z,1018.34
2023-05-19T03:25:23.570Z,1018.37
2023-05-19T03:26:23.518Z,1018.37
2023-05-19T03:27:25.345Z,1018.41
2023-05-19T03:28:23.526Z,1018.38
2023-05-19T03:29:23.476Z,1018.40
2023-05-19T03:30:23.521Z,1018.45
2023-05-19T03:31:23.467Z,1018.43
2023-05-19T03:32:23.605Z,1018.46
2023-05-19T03:33:23.690Z,1018.45
2023-05-19T03:34:23.487Z,1018.42
2023-05-19T03:35:23.441Z,1018.46
2023-05-19T03:36:23.427Z,1018.51
2023-05-19T03:37:23.404Z,1018.47
2023-05-19T03:38:23.382Z,1018.48
2023-05-19T03:39:23.396Z,1018.50
2023-05-19T03:40:23.626Z,1018.58
2023-05-19T03:41:23.368Z,1018.57
2023-05-19T03:42:23.332Z,1018.63
2023-05-19T03:43:23.334Z,1018.62
2023-05-19T03:44:23.314Z,1018.62
2023-05-19T03:45:23.307Z,1018.62
2023-05-19T03:46:23.344Z,1018.59
2023-05-19T03:47:23.490Z,1018.58
2023-05-19T03:48:23.259Z,1018.54
2023-05-19T03:49:23.395Z,1018.56
2023-05-19T03:50:23.276Z,1018.54
2023-05-19T03:51:23.314Z,1018.52
2023-05-19T03:52:23.259Z,1018.57
2023-05-19T03:53:23.381Z,1018.54
2023-05-19T03:54:23.200Z,1018.52
2023-05-19T03:55:23.293Z,1018.55
2023-05-19T03:56:23.154Z,1018.55
2023-05-19T03:57:23.212Z,1018.53
2023-05-19T03:58:23.187Z,1018.53
2023-05-19T03:59:23.323Z,1018.61
2023-05-19T04:00:23.330Z,1018.58
2023-05-19T04:01:23.185Z,1018.54
2023-05-19T04:02:23.203Z,1018.54
2023-05-19T04:03:23.152Z,1018.56
2023-05-19T04:04:23.182Z,1018.53
2023-05-19T04:05:23.073Z,1018.54
2023-05-19T04:06:23.046Z,1018.55
2023-05-19T04:07:23.094Z,1018.55
2023-05-19T04:08:23.035Z,1018.54
2023-05-19T04:09:23.068Z,1018.54
2023-05-19T04:10:23.015Z,1018.53
2023-05-19T04:11:23.029Z,1018.58
2023-05-19T04:12:23.000Z,1018.60
2023-05-19T04:13:23.062Z,1018.63
2023-05-19T04:14:23.033Z,1018.62
2023-05-19T04:15:22.994Z,1018.63
2023-05-19T04:16:23.054Z,1018.61
2023-05-19T04:17:23.015Z,1018.64
2023-05-19T04:18:22.980Z,1018.63
2023-05-19T04:19:24.594Z,1018.66
2023-05-19T04:20:22.969Z,1018.64
2023-05-19T04:21:22.917Z,1018.66
2023-05-19T04:22:22.852Z,1018.71
2023-05-19T04:23:22.914Z,1018.71
2023-05-19T04:24:22.894Z,1018.64
2023-05-19T04:25:22.899Z,1018.70
2023-05-19T04:26:24.315Z,1018.69
2023-05-19T04:27:22.943Z,1018.70
2023-05-19T04:28:22.937Z,1018.73
2023-05-19T04:29:22.825Z,1018.73
2023-05-19T04:30:22.914Z,1018.75
2023-05-19T04:31:22.905Z,1018.70
2023-05-19T04:32:22.839Z,1018.71
2023-05-19T04:33:22.890Z,1018.70
2023-05-19T04:34:22.819Z,1018.70
2023-05-19T04:35:22.790Z,1018.75
2023-05-19T04:36:22.748Z,1018.71
2023-05-19T04:37:22.778Z,1018.71
2023-05-19T04:38:22.763Z,1018.69
2023-05-19T04:39:22.737Z,1018.70
2023-05-19T04:40:22.734Z,1018.65
2023-05-19T04:41:22.801Z,1018.70
2023-05-19T04:42:22.777Z,1018.65
2023-05-19T04:43:22.680Z,1018.64
2023-05-19T04:44:22.667Z,1018.70
2023-05-19T04:45:22.733Z,1018.68
2023-05-19T04:46:22.776Z,1018.68
2023-05-19T04:47:24.099Z,1018.68
2023-05-19T04:48:22.585Z,1018.73
2023-05-19T04:49:22.619Z,1018.76
2023-05-19T04:50:22.583Z,1018.71
2023-05-19T04:51:22.589Z,1018.72
2023-05-19T04:52:22.608Z,1018.68
2023-05-19T04:53:24.539Z,1018.72
2023-05-19T04:54:24.039Z,1018.67
2023-05-19T04:55:22.598Z,1018.66
2023-05-19T04:56:22.561Z,1018.68
2023-05-19T04:57:22.496Z,1018.66
2023-05-19T04:58:22.469Z,1018.67
2023-05-19T04:59:22.502Z,1018.63
2023-05-19T05:00:22.597Z,1018.61
2023-05-19T05:01:22.695Z,1018.64
2023-05-19T05:02:22.683Z,1018.60
2023-05-19T05:03:22.576Z,1018.62
2023-05-19T05:04:22.508Z,1018.65
2023-05-19T05:05:22.566Z,1018.66
2023-05-19T05:06:22.724Z,1018.65
2023-05-19T05:07:24.257Z,1018.67
2023-05-19T05:08:22.390Z,1018.72
2023-05-19T05:09:24.158Z,1018.68
2023-05-19T05:10:22.455Z,1018.69
2023-05-19T05:11:22.518Z,1018.67
2023-05-19T05:12:22.420Z,1018.61
2023-05-19T05:13:22.339Z,1018.64
2023-05-19T05:14:24.094Z,1018.62
2023-05-19T05:15:22.393Z,1018.63
2023-05-19T05:16:22.384Z,1018.61
2023-05-19T05:17:22.381Z,1018.59
2023-05-19T05:18:22.406Z,1018.62
2023-05-19T05:19:22.430Z,1018.62
2023-05-19T05:20:22.270Z,1018.62
2023-05-19T05:21:22.247Z,1018.58
2023-05-19T05:22:22.240Z,1018.59
2023-05-19T05:23:22.243Z,1018.60
2023-05-19T05:24:22.243Z,1018.57
2023-05-19T05:25:23.715Z,1018.61
2023-05-19T05:26:22.199Z,1018.60
2023-05-19T05:27:22.171Z,1018.60
2023-05-19T05:28:22.183Z,1018.60
2023-05-19T05:29:22.163Z,1018.56
2023-05-19T05:30:22.150Z,1018.61
2023-05-19T05:31:22.248Z,1018.57
2023-05-19T05:32:24.123Z,1018.56
2023-05-19T05:33:22.304Z,1018.59
2023-05-19T05:34:22.108Z,1018.56
2023-05-19T05:35:22.083Z,1018.61
2023-05-19T05:36:22.113Z,1018.54
2023-05-19T05:37:22.072Z,1018.58
2023-05-19T05:38:22.141Z,1018.56
2023-05-19T05:39:22.069Z,1018.55
2023-05-19T05:40:22.057Z,1018.53
2023-05-19T05:41:22.052Z,1018.57
2023-05-19T05:42:22.048Z,1018.59
2023-05-19T05:43:23.844Z,1018.57
2023-05-19T05:44:21.985Z,1018.56
2023-05-19T05:45:24.029Z,1018.57
2023-05-19T05:46:22.078Z,1018.54
2023-05-19T05:47:22.073Z,1018.56
2023-05-19T05:48:21.960Z,1018.56
2023-05-19T05:49:21.969Z,1018.53
2023-05-19T05:50:21.937Z,1018.53
2023-05-19T05:51:22.268Z,1018.46
2023-05-19T05:52:23.109Z,1018.50
2023-05-19T05:53:22.419Z,1018.55
2023-05-19T05:54:22.473Z,1018.49
2023-05-19T05:55:22.924Z,1018.49
2023-05-19T05:56:25.483Z,1018.49
2023-05-19T05:57:24.269Z,1018.51
2023-05-19T05:58:23.374Z,1018.46
2023-05-19T05:59:24.689Z,1018.52
2023-05-19T06:00:22.337Z,1018.43
2023-05-19T06:01:24.416Z,1018.49
2023-05-19T06:02:22.862Z,1018.45
2023-05-19T06:03:22.777Z,1018.47
2023-05-19T06:04:22.305Z,1018.51
2023-05-19T06:05:22.545Z,1018.50
2023-05-19T06:06:21.881Z,1018.54
2023-05-19T06:07:22.507Z,1018.48
2023-05-19T06:08:22.564Z,1018.45
2023-05-19T06:09:22.562Z,1018.46
2023-05-19T06:10:24.594Z,1018.42
2023-05-19T06:11:23.233Z,1018.40
2023-05-19T06:12:22.257Z,1018.39
2023-05-19T06:13:22.054Z,1018.43
2023-05-19T06:14:22.573Z,1018.41
2023-05-19T06:15:22.746Z,1018.44
2023-05-19T06:16:22.549Z,1018.45
2023-05-19T06:17:22.022Z,1018.44
2023-05-19T06:18:21.584Z,1018.42
2023-05-19T06:19:21.740Z,1018.38
2023-05-19T06:20:21.555Z,1018.42
2023-05-19T06:21:21.511Z,1018.39
2023-05-19T06:22:21.544Z,1018.39
2023-05-19T06:23:21.820Z,1018.42
2023-05-19T06:24:21.509Z,1018.43
2023-05-19T06:25:21.868Z,1018.36
2023-05-19T06:26:21.522Z,1018.34
2023-05-19T06:27:21.666Z,1018.39
2023-05-19T06:28:21.518Z,1018.37
2023-05-19T06:29:23.421Z,1018.41
2023-05-19T06:30:21.534Z,1018.40
2023-05-19T06:31:21.804Z,1018.38
2023-05-19T06:32:22.153Z,1018.40
2023-05-19T06:33:22.460Z,1018.34
2023-05-19T06:34:22.392Z,1018.36
2023-05-19T06:35:23.247Z,1018.35
2023-05-19T06:36:22.117Z,1018.35
2023-05-19T06:37:21.459Z,1018.36
2023-05-19T06:38:22.867Z,1018.33
2023-05-19T06:39:21.474Z,1018.33
2023-05-19T06:40:21.517Z,1018.32
2023-05-19T06:41:23.059Z,1018.32
2023-05-19T06:42:22.082Z,1018.32
2023-05-19T06:43:21.858Z,1018.39
2023-05-19T06:44:22.122Z,1018.33
2023-05-19T06:45:21.334Z,1018.35
2023-05-19T06:46:22.921Z,1018.37
2023-05-19T06:47:21.366Z,1018.37
2023-05-19T06:48:21.271Z,1018.38
2023-05-19T06:49:21.397Z,1018.39
2023-05-19T06:50:21.641Z,1018.38
2023-05-19T06:51:22.834Z,1018.36
2023-05-19T06:52:21.251Z,1018.38
2023-05-19T06:53:21.250Z,1018.36
2023-05-19T06:54:21.291Z,1018.38
2023-05-19T06:55:21.252Z,1018.38
2023-05-19T06:56:21.255Z,1018.41
2023-05-19T06:57:21.311Z,1018.34
2023-05-19T06:58:21.251Z,1018.36
2023-05-19T06:59:22.702Z,1018.35
2023-05-19T07:00:23.098Z,1018.39
2023-05-19T07:01:22.760Z,1018.37
2023-05-19T07:02:21.137Z,1018.36
2023-05-19T07:03:21.327Z,1018.36
2023-05-19T07:04:24.474Z,1018.32
2023-05-19T07:05:21.160Z,1018.30
2023-05-19T07:06:21.308Z,1018.33
2023-05-19T07:07:21.096Z,1018.33
2023-05-19T07:08:21.078Z,1018.31
2023-05-19T07:09:23.677Z,1018.35
2023-05-19T07:10:21.398Z,1018.31
2023-05-19T07:11:21.033Z,1018.30
2023-05-19T07:12:21.268Z,1018.30
2023-05-19T07:13:21.009Z,1018.33
2023-05-19T07:14:22.934Z,1018.31
2023-05-19T07:15:22.987Z,1018.28
2023-05-19T07:16:21.225Z,1018.33
2023-05-19T07:17:21.064Z,1018.31
2023-05-19T07:18:20.982Z,1018.28
2023-05-19T07:19:20.997Z,1018.28
2023-05-19T07:20:20.923Z,1018.25
2023-05-19T07:21:20.946Z,1018.26
2023-05-19T07:22:20.956Z,1018.22
2023-05-19T07:23:20.903Z,1018.23
2023-05-19T07:24:21.387Z,1018.24
2023-05-19T07:25:21.169Z,1018.20
2023-05-19T07:26:20.936Z,1018.22
2023-05-19T07:27:20.938Z,1018.20
2023-05-19T07:28:20.846Z,1018.24
2023-05-19T07:29:22.362Z,1018.20
2023-05-19T07:30:20.850Z,1018.16
2023-05-19T07:31:20.945Z,1018.23
2023-05-19T07:32:21.003Z,1018.22
2023-05-19T07:33:22.755Z,1018.22
2023-05-19T07:34:20.761Z,1018.26
2023-05-19T07:35:20.791Z,1018.22
2023-05-19T07:36:20.808Z,1018.21
2023-05-19T07:37:20.763Z,1018.21
2023-05-19T07:38:20.741Z,1018.21
2023-05-19T07:39:20.829Z,1018.23
2023-05-19T07:40:22.684Z,1018.21
2023-05-19T07:41:20.799Z,1018.28
2023-05-19T07:42:20.739Z,1018.25
2023-05-19T07:43:20.704Z,1018.23
2023-05-19T07:44:20.666Z,1018.23
2023-05-19T07:45:20.743Z,1018.23
2023-05-19T07:46:20.752Z,1018.22
2023-05-19T07:47:20.896Z,1018.20
2023-05-19T07:48:20.651Z,1018.18
2023-05-19T07:49:20.617Z,1018.17
2023-05-19T07:50:20.643Z,1018.18
2023-05-19T07:51:20.602Z,1018.20
2023-05-19T07:52:20.614Z,1018.19
2023-05-19T07:53:20.601Z,1018.18
2023-05-19T07:54:20.742Z,1018.20
2023-05-19T07:55:20.608Z,1018.15
2023-05-19T07:56:20.557Z,1018.12
2023-05-19T07:57:20.540Z,1018.12
2023-05-19T07:58:20.526Z,1018.14
2023-05-19T07:59:20.487Z,1018.05
2023-05-19T08:00:20.569Z,1018.05
2023-05-19T08:01:20.586Z,1018.08
2023-05-19T08:02:20.523Z,1018.07
2023-05-19T08:03:20.798Z,1018.07
2023-05-19T08:04:20.598Z,1018.05
2023-05-19T08:05:20.453Z,1018.01
2023-05-19T08:06:20.442Z,1018.06
2023-05-19T08:07:20.462Z,1018.03
2023-05-19T08:08:20.696Z,1018.02
2023-05-19T08:09:20.463Z,1018.00
2023-05-19T08:10:20.359Z,1017.96
2023-05-19T08:11:20.340Z,1017.99
2023-05-19T08:12:20.403Z,1017.99
2023-05-19T08:13:20.410Z,1017.99
2023-05-19T08:14:20.489Z,1017.96
2023-05-19T08:15:20.498Z,1017.92
2023-05-19T08:16:20.429Z,1017.94
2023-05-19T08:17:20.282Z,1017.95
2023-05-19T08:18:20.356Z,1017.98
2023-05-19T08:19:20.363Z,1017.96
2023-05-19T08:20:20.306Z,1017.97
2023-05-19T08:21:20.246Z,1017.97
2023-05-19T08:22:20.588Z,1017.90
2023-05-19T08:23:20.261Z,1017.95
2023-05-19T08:24:20.232Z,1017.95
2023-05-19T08:25:20.348Z,1017.94
2023-05-19T08:26:20.216Z,1017.89
2023-05-19T08:27:20.181Z,1017.87
2023-05-19T08:28:20.342Z,1017.89
2023-05-19T08:29:20.234Z,1017.86
2023-05-19T08:30:20.234Z,1017.85
2023-05-19T08:31:20.354Z,1017.87
2023-05-19T08:32:20.133Z,1017.92
2023-05-19T08:33:20.169Z,1017.89
2023-05-19T08:34:20.107Z,1017.94
2023-05-19T08:35:20.166Z,1017.89
2023-05-19T08:36:20.088Z,1017.88
2023-05-19T08:37:20.120Z,1017.87
2023-05-19T08:38:20.134Z,1017.77
2023-05-19T08:39:20.148Z,1017.84
2023-05-19T08:40:20.042Z,1017.83
2023-05-19T08:41:19.978Z,1017.77
2023-05-19T08:42:20.046Z,1017.77
2023-05-19T08:43:20.123Z,1017.72
2023-05-19T08:44:20.030Z,1017.75
2023-05-19T08:45:20.035Z,1017.75
2023-05-19T08:46:20.044Z,1017.74
2023-05-19T08:47:19.994Z,1017.75
2023-05-19T08:48:19.974Z,1017.65
2023-05-19T08:49:19.963Z,1017.69
2023-05-19T08:50:19.969Z,1017.66
2023-05-19T08:51:19.963Z,1017.67
2023-05-19T08:52:19.983Z,1017.59
2023-05-19T08:53:32.376Z,1017.60
2023-05-19T08:54:20.919Z,1017.57
2023-05-19T08:55:19.912Z,1017.54
2023-05-19T08:56:19.970Z,1017.54
2023-05-19T08:57:19.918Z,1017.55
2023-05-19T08:58:19.845Z,1017.56
2023-05-19T08:59:19.864Z,1017.52
2023-05-19T09:00:19.802Z,1017.53
2023-05-19T09:01:19.940Z,1017.53
2023-05-19T09:02:19.847Z,1017.55
2023-05-19T09:03:23.752Z,1017.53
2023-05-19T09:04:19.995Z,1017.50
2023-05-19T09:05:20.058Z,1017.45
2023-05-19T09:06:20.004Z,1017.48
2023-05-19T09:07:19.753Z,1017.48
2023-05-19T09:08:19.726Z,1017.48
2023-05-19T09:09:19.717Z,1017.47
2023-05-19T09:10:19.907Z,1017.48
2023-05-19T09:11:21.702Z,1017.53
2023-05-19T09:12:19.737Z,1017.46
2023-05-19T09:13:19.666Z,1017.46
2023-05-19T09:14:19.654Z,1017.41
2023-05-19T09:15:19.728Z,1017.44
2023-05-19T09:16:19.673Z,1017.47
2023-05-19T09:17:19.720Z,1017.47
2023-05-19T09:18:21.588Z,1017.42
2023-05-19T09:19:19.678Z,1017.44
2023-05-19T09:20:19.729Z,1017.50
2023-05-19T09:21:19.615Z,1017.44
2023-05-19T09:22:19.597Z,1017.36
2023-05-19T09:23:19.634Z,1017.38
2023-05-19T09:24:19.590Z,1017.37
2023-05-19T09:25:19.581Z,1017.34
2023-05-19T09:26:19.606Z,1017.36
2023-05-19T09:27:19.545Z,1017.34
2023-05-19T09:28:19.502Z,1017.37
2023-05-19T09:29:19.585Z,1017.38
2023-05-19T09:30:19.628Z,1017.39
2023-05-19T09:31:19.521Z,1017.45
2023-05-19T09:32:19.733Z,1017.29
2023-05-19T09:33:19.703Z,1017.36
2023-05-19T09:34:19.553Z,1017.28
2023-05-19T09:35:19.475Z,1017.26
2023-05-19T09:36:19.468Z,1017.26
2023-05-19T09:37:19.439Z,1017.25
2023-05-19T09:38:19.463Z,1017.25
2023-05-19T09:39:19.670Z,1017.26
2023-05-19T09:40:19.417Z,1017.22
2023-05-19T09:41:19.368Z,1017.19
2023-05-19T09:42:19.374Z,1017.23
2023-05-19T09:43:19.452Z,1017.23
2023-05-19T09:44:19.412Z,1017.31
2023-05-19T09:45:19.312Z,1017.21
2023-05-19T09:46:19.464Z,1017.12
2023-05-19T09:47:19.334Z,1017.20
2023-05-19T09:48:19.407Z,1017.18
2023-05-19T09:49:19.256Z,1017.18
2023-05-19T09:50:19.302Z,1017.19
2023-05-19T09:51:19.278Z,1017.17
2023-05-19T09:52:19.197Z,1017.22
2023-05-19T09:53:19.587Z,1017.26
2023-05-19T09:54:20.557Z,1017.25
2023-05-19T09:55:19.237Z,1017.23
2023-05-19T09:56:19.221Z,1017.10
2023-05-19T09:57:19.223Z,1017.16
2023-05-19T09:58:19.244Z,1017.16
2023-05-19T09:59:19.186Z,1017.11
2023-05-19T10:00:19.183Z,1017.07
2023-05-19T10:01:19.393Z,1017.06
2023-05-19T10:02:19.103Z,1017.08
2023-05-19T10:03:19.212Z,1017.08
2023-05-19T10:04:19.143Z,1017.05
2023-05-19T10:05:19.182Z,1017.04
2023-05-19T10:06:19.150Z,1017.04
2023-05-19T10:07:19.176Z,1016.99
2023-05-19T10:08:19.111Z,1017.03
2023-05-19T10:09:19.076Z,1017.02
2023-05-19T10:10:19.126Z,1017.05
2023-05-19T10:11:19.156Z,1017.01
2023-05-19T10:12:19.088Z,1016.98
2023-05-19T10:13:18.998Z,1016.94
2023-05-19T10:14:19.082Z,1016.93
2023-05-19T10:15:20.754Z,1016.90
2023-05-19T10:16:19.072Z,1016.90
2023-05-19T10:17:18.952Z,1016.96
2023-05-19T10:18:18.933Z,1016.93
2023-05-19T10:19:19.009Z,1016.93
2023-05-19T10:20:19.059Z,1016.87
2023-05-19T10:21:18.992Z,1016.90
2023-05-19T10:22:19.204Z,1016.97
2023-05-19T10:23:18.887Z,1017.03
2023-05-19T10:24:18.942Z,1016.94
2023-05-19T10:25:18.943Z,1016.98
2023-05-19T10:26:18.905Z,1016.93
2023-05-19T10:27:18.893Z,1016.94
2023-05-19T10:28:20.371Z,1016.96
2023-05-19T10:29:18.936Z,1016.92
2023-05-19T10:30:18.918Z,1016.82
2023-05-19T10:31:18.802Z,1016.85
2023-05-19T10:32:18.834Z,1016.87
2023-05-19T10:33:18.855Z,1016.79
2023-05-19T10:34:18.822Z,1016.88
2023-05-19T10:35:20.824Z,1016.82
2023-05-19T10:36:18.857Z,1016.76
2023-05-19T10:37:18.736Z,1016.82
2023-05-19T10:38:18.783Z,1016.76
2023-05-19T10:39:18.824Z,1016.76
2023-05-19T10:40:18.788Z,1016.75
2023-05-19T10:41:18.718Z,1016.61
2023-05-19T10:42:18.958Z,1016.72
2023-05-19T10:43:18.721Z,1016.68
2023-05-19T10:44:18.728Z,1016.69
2023-05-19T10:45:18.681Z,1016.69
2023-05-19T10:46:18.630Z,1016.68
2023-05-19T10:47:18.801Z,1016.67
2023-05-19T10:48:18.682Z,1016.67
2023-05-19T10:49:18.791Z,1016.70
2023-05-19T10:50:18.602Z,1016.67
2023-05-19T10:51:18.628Z,1016.66
2023-05-19T10:52:18.647Z,1016.67
2023-05-19T10:53:18.613Z,1016.68
2023-05-19T10:54:18.673Z,1016.62
2023-05-19T10:55:18.505Z,1016.58
2023-05-19T10:56:18.622Z,1016.62
2023-05-19T10:57:18.576Z,1016.68
2023-05-19T10:58:18.612Z,1016.65
2023-05-19T10:59:18.575Z,1016.69
2023-05-19T11:00:18.518Z,1016.69
2023-05-19T11:01:18.582Z,1016.64
2023-05-19T11:02:18.559Z,1016.63
2023-05-19T11:03:18.789Z,1016.59
2023-05-19T11:04:18.532Z,1016.59
2023-05-19T11:05:18.508Z,1016.58
2023-05-19T11:06:18.440Z,1016.58
2023-05-19T11:07:18.519Z,1016.53
2023-05-19T11:08:18.457Z,1016.62
2023-05-19T11:09:19.503Z,1016.59
2023-05-19T11:10:18.595Z,1016.61
2023-05-19T11:11:18.430Z,1016.60
2023-05-19T11:12:18.464Z,1016.59
2023-05-19T11:13:18.352Z,1016.57
2023-05-19T11:14:18.357Z,1016.61
2023-05-19T11:15:18.335Z,1016.59
2023-05-19T11:16:18.380Z,1016.63
2023-05-19T11:17:20.288Z,1016.66
2023-05-19T11:18:18.347Z,1016.60
2023-05-19T11:19:18.346Z,1016.57
2023-05-19T11:20:18.318Z,1016.62
2023-05-19T11:21:18.317Z,1016.61
2023-05-19T11:22:18.356Z,1016.62
2023-05-19T11:23:18.315Z,1016.59
2023-05-19T11:24:20.213Z,1016.66
2023-05-19T11:25:18.320Z,1016.56
2023-05-19T11:26:18.241Z,1016.62
2023-05-19T11:27:18.220Z,1016.63
2023-05-19T11:28:18.161Z,1016.61
2023-05-19T11:29:18.172Z,1016.56
2023-05-19T11:30:18.222Z,1016.54
2023-05-19T11:31:18.413Z,1016.61
2023-05-19T11:32:18.176Z,1016.57
2023-05-19T11:33:18.176Z,1016.58
2023-05-19T11:34:18.159Z,1016.52
2023-05-19T11:35:18.156Z,1016.50
2023-05-19T11:36:18.188Z,1016.54
2023-05-19T11:37:18.132Z,1016.54
2023-05-19T11:38:18.138Z,1016.50
2023-05-19T11:39:18.217Z,1016.50
2023-05-19T11:40:18.176Z,1016.46
2023-05-19T11:41:19.529Z,1016.46
2023-05-19T11:42:18.112Z,1016.48
2023-05-19T11:43:18.054Z,1016.44
2023-05-19T11:44:18.057Z,1016.43
2023-05-19T11:45:18.078Z,1016.37
2023-05-19T11:46:18.488Z,1016.43
2023-05-19T11:47:18.047Z,1016.47
2023-05-19T11:48:18.103Z,1016.40
2023-05-19T11:49:17.994Z,1016.45
2023-05-19T11:50:18.031Z,1016.45
2023-05-19T11:51:17.959Z,1016.42
2023-05-19T11:52:18.114Z,1016.46
2023-05-19T11:53:20.172Z,1016.40
2023-05-19T11:54:17.995Z,1016.40
2023-05-19T11:55:18.011Z,1016.45
2023-05-19T11:56:17.994Z,1016.39
2023-05-19T11:57:17.904Z,1016.43
2023-05-19T11:58:17.864Z,1016.48
2023-05-19T11:59:19.881Z,1016.43
2023-05-19T12:00:17.874Z,1016.44
2023-05-19T12:01:17.877Z,1016.43
2023-05-19T12:02:17.920Z,1016.40
2023-05-19T12:03:17.918Z,1016.39
2023-05-19T12:04:17.852Z,1016.33
2023-05-19T12:05:17.958Z,1016.31